createdAt,value
2019-05-17T00:04:13.361Z,31.50
2019-05-17T00:12:31.145Z,37.17
2019-05-17T00:20:48.616Z,42.00
2019-05-17T00:29:06.825Z,35.47
2019-05-17T00:37:26.329Z,29.10
2019-05-17T00:45:43.752Z,27.10
2019-05-17T00:54:01.344Z,25.87
2019-05-17T01:02:18.824Z,19.50
2019-05-17T01:10:36.855Z,18.10
2019-05-17T01:18:54.593Z,16.02
2019-05-17T01:27:12.041Z,19.57
2019-05-17T01:35:29.938Z,20.75
2019-05-17T01:43:47.571Z,21.37
2019-05-17T01:52:07.297Z,15.97
2019-05-17T02:00:26.601Z,18.30
2019-05-17T02:08:44.248Z,14.80
2019-05-17T02:17:02.007Z,14.83
2019-05-17T02:25:19.608Z,18.53
2019-05-17T02:33:37.123Z,16.03
2019-05-17T02:41:54.533Z,15.48
2019-05-17T02:50:13.071Z,18.10
2019-05-17T02:58:33.096Z,19.73
2019-05-17T03:06:52.961Z,17.20
2019-05-17T03:15:12.651Z,14.60
2019-05-17T03:23:28.361Z,12.77
2019-05-17T03:31:53.408Z,11.30
2019-05-17T03:40:23.322Z,13.73
2019-05-17T03:48:25.085Z,14.90
2019-05-17T03:56:42.994Z,16.75
2019-05-17T04:05:04.129Z,11.53
2019-05-17T04:13:23.128Z,14.30
2019-05-17T04:21:42.690Z,11.67
2019-05-17T04:29:58.810Z,15.40
2019-05-17T04:38:16.255Z,16.20
2019-05-17T04:46:33.746Z,16.37
2019-05-17T04:54:53.710Z,16.77
2019-05-17T05:03:12.794Z,13.40
2019-05-17T05:11:32.615Z,15.70
2019-05-17T05:19:49.069Z,15.83
2019-05-17T05:28:06.504Z,15.85
2019-05-17T05:36:24.310Z,16.90
2019-05-17T05:44:41.793Z,16.87
2019-05-17T05:53:01.800Z,18.67
2019-05-17T06:01:21.782Z,20.23
2019-05-17T06:09:38.350Z,21.03
2019-05-17T06:17:55.847Z,20.00
2019-05-17T06:26:13.437Z,26.10
2019-05-17T06:34:32.759Z,16.20
2019-05-17T06:42:52.378Z,16.50
2019-05-17T06:51:11.725Z,15.20
2019-05-17T06:59:28.510Z,13.10
2019-05-17T07:07:45.986Z,15.80
2019-05-17T07:16:03.412Z,17.20
2019-05-17T07:24:20.936Z,16.20
2019-05-17T07:32:40.600Z,13.90
2019-05-17T07:40:59.524Z,15.70
2019-05-17T07:49:16.801Z,16.70
2019-05-17T07:57:34.318Z,13.17
2019-05-17T08:05:51.768Z,17.97
2019-05-17T08:14:10.565Z,17.47
2019-05-17T08:22:29.371Z,15.80
2019-05-17T08:30:46.981Z,16.20
2019-05-17T08:39:05.943Z,17.53
2019-05-17T08:47:23.402Z,14.70
2019-05-17T08:55:41.276Z,19.37
2019-05-17T09:03:59.865Z,15.97
2019-05-17T09:12:17.560Z,16.03
2019-05-17T09:20:35.069Z,12.33
2019-05-17T09:28:52.607Z,14.53
2019-05-17T09:37:10.075Z,13.87
2019-05-17T09:45:30.461Z,12.63
2019-05-17T09:53:49.365Z,12.10
2019-05-17T10:02:06.377Z,10.67
2019-05-17T10:11:06.058Z,12.80
2019-05-17T10:19:17.083Z,10.90
2019-05-17T10:27:34.530Z,9.90
2019-05-17T10:35:52.064Z,9.23
2019-05-17T10:44:09.546Z,8.50
2019-05-17T10:52:29.727Z,9.80
2019-05-17T11:00:46.273Z,8.20
2019-05-17T11:09:05.769Z,11.03
2019-05-17T11:17:23.274Z,9.83
2019-05-17T11:25:45.473Z,11.47
2019-05-17T11:34:00.568Z,9.60
2019-05-17T11:42:18.007Z,7.80
2019-05-17T11:50:35.483Z,9.97
2019-05-17T11:58:52.938Z,10.63
2019-05-17T12:07:10.488Z,9.50
2019-05-17T12:15:43.544Z,7.27
2019-05-17T12:23:48.065Z,7.73
2019-05-17T12:32:05.737Z,7.80
2019-05-17T12:40:23.315Z,10.50
2019-05-17T12:48:41.079Z,7.87
2019-05-17T12:56:58.940Z,9.60
2019-05-17T13:05:16.558Z,8.60
2019-05-17T13:13:34.079Z,9.33
2019-05-17T13:21:51.552Z,8.87
2019-05-17T13:30:09.321Z,7.37
2019-05-17T13:38:26.872Z,8.40
2019-05-17T13:46:44.389Z,8.50
2019-05-17T13:55:01.909Z,7.70
2019-05-17T14:03:19.394Z,8.10
2019-05-17T14:11:36.889Z,8.13
2019-05-17T14:19:54.453Z,8.43
2019-05-17T14:28:11.979Z,8.40
2019-05-17T14:36:29.543Z,8.93
2019-05-17T14:44:46.964Z,13.33
2019-05-17T14:53:05.092Z,8.63
2019-05-17T15:01:22.841Z,7.33
2019-05-17T15:09:40.417Z,6.83
2019-05-17T15:17:57.988Z,7.43
2019-05-17T15:26:15.927Z,6.47
2019-05-17T15:34:34.061Z,5.50
2019-05-17T15:42:51.511Z,5.40
2019-05-17T15:51:08.989Z,5.30
2019-05-17T15:59:26.456Z,6.63
2019-05-17T16:07:44.299Z,6.03
2019-05-17T16:16:01.744Z,7.23
2019-05-17T16:24:19.261Z,6.33
2019-05-17T16:32:36.696Z,6.53
2019-05-17T16:40:54.135Z,5.40
2019-05-17T16:49:11.748Z,5.40
2019-05-17T16:57:32.617Z,5.57
2019-05-17T17:05:50.218Z,5.63
2019-05-17T17:22:48.455Z,7.97
2019-05-17T17:31:07.613Z,8.27
2019-05-17T17:39:27.046Z,7.92
2019-05-17T17:47:44.296Z,8.20
2019-05-17T17:56:35.081Z,7.93
2019-05-17T18:04:52.597Z,8.47
2019-05-17T18:13:10.547Z,9.40
2019-05-17T18:21:28.011Z,8.20
2019-05-17T18:29:45.464Z,11.03
2019-05-17T18:38:03.160Z,9.80
2019-05-17T18:46:20.986Z,10.30
2019-05-17T18:54:38.520Z,10.40
2019-05-17T19:02:56.104Z,13.00
2019-05-17T19:11:13.563Z,12.47
2019-05-17T19:19:31.022Z,11.57
2019-05-17T19:27:48.546Z,13.40
2019-05-17T19:36:06.172Z,13.30
2019-05-17T19:44:23.613Z,13.00
2019-05-17T19:52:41.190Z,13.25
2019-05-17T20:00:58.766Z,13.00
2019-05-17T20:09:16.219Z,20.20
2019-05-17T20:17:33.660Z,19.10
2019-05-17T20:25:51.146Z,16.07
2019-05-17T20:34:08.667Z,16.90
2019-05-17T20:42:26.165Z,17.40
2019-05-17T20:50:43.627Z,18.43
2019-05-17T20:59:01.508Z,17.15
2019-05-17T21:07:18.953Z,17.70
2019-05-17T21:15:47.508Z,15.77
2019-05-17T21:23:55.526Z,16.30
2019-05-17T21:32:12.987Z,17.73
2019-05-17T21:40:30.445Z,16.57
2019-05-17T21:48:47.872Z,17.83
2019-05-17T21:57:05.331Z,18.40
2019-05-17T22:05:22.926Z,21.47
2019-05-17T22:13:40.477Z,18.00
2019-05-17T22:21:57.908Z,18.00
2019-05-17T22:30:15.475Z,17.30
2019-05-17T22:38:32.923Z,19.43
2019-05-17T22:46:50.388Z,19.27
2019-05-17T22:55:08.055Z,19.67
2019-05-17T23:03:25.524Z,19.47
2019-05-17T23:11:42.959Z,21.30
2019-05-17T23:20:00.470Z,24.63
2019-05-17T23:28:17.969Z,21.03
2019-05-17T23:36:35.671Z,21.17
2019-05-17T23:44:53.211Z,22.77
2019-05-17T23:53:11.055Z,23.83
